sensor_id;sensor_type;location;lat;lon;timestamp;pressure;altitude;pressure_sealevel;temperature;humidity
11440;BME280;5776;51.814;4.510;2022-09-25T00:00:43;101700.13;;;13.66;90.43
11440;BME280;5776;51.814;4.510;2022-09-25T00:03:10;101708.91;;;13.63;90.14
11440;BME280;5776;51.814;4.510;2022-09-25T00:05:38;101706.97;;;13.63;90.57
11440;BME280;5776;51.814;4.510;2022-09-25T00:08:05;101712.72;;;13.61;90.06
11440;BME280;5776;51.814;4.510;2022-09-25T00:10:32;101713.81;;;13.60;90.16
11440;BME280;5776;51.814;4.510;2022-09-25T00:12:58;101711.69;;;13.57;90.28
11440;BME280;5776;51.814;4.510;2022-09-25T00:15:24;101716.81;;;13.59;90.55
11440;BME280;5776;51.814;4.510;2022-09-25T00:17:50;101722.28;;;13.59;90.32
11440;BME280;5776;51.814;4.510;2022-09-25T00:20:18;101720.94;;;13.56;90.08
11440;BME280;5776;51.814;4.510;2022-09-25T00:22:49;101718.78;;;13.53;90.10
11440;BME280;5776;51.814;4.510;2022-09-25T00:25:16;101718.00;;;13.53;89.78
11440;BME280;5776;51.814;4.510;2022-09-25T00:27:43;101718.78;;;13.53;90.26
11440;BME280;5776;51.814;4.510;2022-09-25T00:30:11;101729.19;;;13.51;90.16
11440;BME280;5776;51.814;4.510;2022-09-25T00:32:37;101724.31;;;13.48;90.66
11440;BME280;5776;51.814;4.510;2022-09-25T00:35:04;101726.78;;;13.45;90.61
11440;BME280;5776;51.814;4.510;2022-09-25T00:37:36;101715.56;;;13.46;90.45
11440;BME280;5776;51.814;4.510;2022-09-25T00:40:04;101717.28;;;13.42;90.38
11440;BME280;5776;51.814;4.510;2022-09-25T00:42:30;101716.16;;;13.43;90.22
11440;BME280;5776;51.814;4.510;2022-09-25T00:44:59;101721.63;;;13.43;90.36
11440;BME280;5776;51.814;4.510;2022-09-25T00:50:00;101713.47;;;13.38;90.11
11440;BME280;5776;51.814;4.510;2022-09-25T00:52:28;101720.53;;;13.39;90.61
11440;BME280;5776;51.814;4.510;2022-09-25T00:55:02;101722.47;;;13.38;90.91
11440;BME280;5776;51.814;4.510;2022-09-25T00:57:31;101712.94;;;13.36;90.52
11440;BME280;5776;51.814;4.510;2022-09-25T01:00:07;101714.06;;;13.35;90.88
11440;BME280;5776;51.814;4.510;2022-09-25T01:02:37;101705.56;;;13.36;91.24
11440;BME280;5776;51.814;4.510;2022-09-25T01:05:11;101709.13;;;13.37;90.24
11440;BME280;5776;51.814;4.510;2022-09-25T01:07:40;101715.41;;;13.37;90.32
11440;BME280;5776;51.814;4.510;2022-09-25T01:10:09;101717.81;;;13.39;90.15
11440;BME280;5776;51.814;4.510;2022-09-25T01:12:38;101721.66;;;13.38;90.00
11440;BME280;5776;51.814;4.510;2022-09-25T01:15:06;101718.94;;;13.38;90.00
11440;BME280;5776;51.814;4.510;2022-09-25T01:23:14;101704.75;;;13.36;90.38
11440;BME280;5776;51.814;4.510;2022-09-25T01:34:58;101705.88;;;13.35;90.05
11440;BME280;5776;51.814;4.510;2022-09-25T01:42:43;101706.72;;;13.30;90.26
11440;BME280;5776;51.814;4.510;2022-09-25T01:45:17;101712.16;;;13.30;89.53
11440;BME280;5776;51.814;4.510;2022-09-25T01:47:47;101714.63;;;13.32;89.81
11440;BME280;5776;51.814;4.510;2022-09-25T01:50:20;101714.38;;;13.28;90.29
11440;BME280;5776;51.814;4.510;2022-09-25T01:52:51;101708.34;;;13.26;90.25
11440;BME280;5776;51.814;4.510;2022-09-25T01:55:26;101708.34;;;13.26;89.93
11440;BME280;5776;51.814;4.510;2022-09-25T01:58:17;101712.19;;;13.25;90.53
11440;BME280;5776;51.814;4.510;2022-09-25T02:00:52;101716.28;;;13.23;90.13
11440;BME280;5776;51.814;4.510;2022-09-25T02:03:28;101711.13;;;13.21;90.14
11440;BME280;5776;51.814;4.510;2022-09-25T02:05:59;101727.78;;;13.19;90.56
11440;BME280;5776;51.814;4.510;2022-09-25T02:08:37;101727.78;;;13.19;90.21
11440;BME280;5776;51.814;4.510;2022-09-25T02:11:05;101727.25;;;13.17;90.29
11440;BME280;5776;51.814;4.510;2022-09-25T02:16:08;101727.25;;;13.17;90.36
11440;BME280;5776;51.814;4.510;2022-09-25T02:18:35;101726.44;;;13.17;90.53
11440;BME280;5776;51.814;4.510;2022-09-25T02:24:17;101726.72;;;13.15;90.22
11440;BME280;5776;51.814;4.510;2022-09-25T02:26:44;101722.38;;;13.14;90.90
11440;BME280;5776;51.814;4.510;2022-09-25T02:29:11;101721.53;;;13.14;90.24
11440;BME280;5776;51.814;4.510;2022-09-25T02:31:42;101723.44;;;13.13;90.49
11440;BME280;5776;51.814;4.510;2022-09-25T02:34:10;101724.56;;;13.12;90.24
11440;BME280;5776;51.814;4.510;2022-09-25T02:36:36;101728.66;;;13.10;89.89
11440;BME280;5776;51.814;4.510;2022-09-25T02:39:05;101725.94;;;13.10;90.67
11440;BME280;5776;51.814;4.510;2022-09-25T02:44:41;101715.03;;;13.10;89.92
11440;BME280;5776;51.814;4.510;2022-09-25T02:47:33;101713.38;;;13.09;90.73
11440;BME280;5776;51.814;4.510;2022-09-25T02:50:22;101715.59;;;13.07;90.83
11440;BME280;5776;51.814;4.510;2022-09-25T02:53:01;101710.41;;;13.05;90.72
11440;BME280;5776;51.814;4.510;2022-09-25T02:55:39;101708.50;;;13.06;91.26
11440;BME280;5776;51.814;4.510;2022-09-25T03:00:39;101709.88;;;13.03;90.67
11440;BME280;5776;51.814;4.510;2022-09-25T03:03:09;101714.28;;;12.99;91.18
11440;BME280;5776;51.814;4.510;2022-09-25T03:05:38;101713.22;;;12.95;91.50
11440;BME280;5776;51.814;4.510;2022-09-25T03:08:05;101717.91;;;12.89;90.96
11440;BME280;5776;51.814;4.510;2022-09-25T03:10:50;101715.97;;;12.90;90.77
11440;BME280;5776;51.814;4.510;2022-09-25T03:13:24;101715.44;;;12.88;91.01
11440;BME280;5776;51.814;4.510;2022-09-25T03:18:31;101716.56;;;12.82;90.46
11440;BME280;5776;51.814;4.510;2022-09-25T03:20:58;101713.31;;;12.80;90.53
11440;BME280;5776;51.814;4.510;2022-09-25T03:23:24;101716.59;;;12.77;90.47
11440;BME280;5776;51.814;4.510;2022-09-25T03:25:53;101714.97;;;12.75;90.51
11440;BME280;5776;51.814;4.510;2022-09-25T03:28:20;101719.59;;;12.75;90.61
11440;BME280;5776;51.814;4.510;2022-09-25T03:33:32;101723.44;;;12.74;90.45
11440;BME280;5776;51.814;4.510;2022-09-25T03:36:25;101715.53;;;12.72;90.00
11440;BME280;5776;51.814;4.510;2022-09-25T03:38:53;101719.88;;;12.73;90.31
11440;BME280;5776;51.814;4.510;2022-09-25T03:41:23;101714.69;;;12.77;90.40
11440;BME280;5776;51.814;4.510;2022-09-25T03:43:50;101714.94;;;12.81;90.73
11440;BME280;5776;51.814;4.510;2022-09-25T03:46:21;101712.75;;;12.83;91.08
11440;BME280;5776;51.814;4.510;2022-09-25T03:48:47;101714.34;;;12.84;90.73
11440;BME280;5776;51.814;4.510;2022-09-25T03:51:14;101712.47;;;12.84;90.51
11440;BME280;5776;51.814;4.510;2022-09-25T03:53:40;101712.16;;;12.86;90.94
11440;BME280;5776;51.814;4.510;2022-09-25T03:56:10;101709.44;;;12.86;91.10
11440;BME280;5776;51.814;4.510;2022-09-25T03:58:36;101711.09;;;12.87;91.00
11440;BME280;5776;51.814;4.510;2022-09-25T04:01:02;101706.16;;;12.89;91.37
11440;BME280;5776;51.814;4.510;2022-09-25T04:03:30;101707.78;;;12.90;91.33
11440;BME280;5776;51.814;4.510;2022-09-25T04:05:59;101706.16;;;12.89;91.36
11440;BME280;5776;51.814;4.510;2022-09-25T04:08:26;101703.16;;;12.90;92.21
11440;BME280;5776;51.814;4.510;2022-09-25T04:10:53;101695.25;;;12.89;91.76
11440;BME280;5776;51.814;4.510;2022-09-25T04:13:22;101685.19;;;12.89;91.92
11440;BME280;5776;51.814;4.510;2022-09-25T04:15:48;101678.38;;;12.87;92.91
11440;BME280;5776;51.814;4.510;2022-09-25T04:18:14;101679.19;;;12.87;92.62
11440;BME280;5776;51.814;4.510;2022-09-25T04:20:40;101680.00;;;12.88;92.92
11440;BME280;5776;51.814;4.510;2022-09-25T04:23:06;101683.84;;;12.87;92.40
11440;BME280;5776;51.814;4.510;2022-09-25T04:25:32;101683.25;;;12.90;92.15
11440;BME280;5776;51.814;4.510;2022-09-25T04:27:58;101679.19;;;12.87;92.74
11440;BME280;5776;51.814;4.510;2022-09-25T04:30:25;101680.00;;;12.88;92.19
11440;BME280;5776;51.814;4.510;2022-09-25T04:32:52;101680.81;;;12.88;92.34
11440;BME280;5776;51.814;4.510;2022-09-25T04:35:37;101681.09;;;12.87;92.38
11440;BME280;5776;51.814;4.510;2022-09-25T04:38:03;101678.66;;;12.85;92.32
11440;BME280;5776;51.814;4.510;2022-09-25T04:40:30;101671.56;;;12.84;92.37
11440;BME280;5776;51.814;4.510;2022-09-25T04:42:57;101679.75;;;12.84;92.66
11440;BME280;5776;51.814;4.510;2022-09-25T04:45:24;101676.19;;;12.84;92.45
11440;BME280;5776;51.814;4.510;2022-09-25T04:47:54;101673.78;;;12.82;92.44
11440;BME280;5776;51.814;4.510;2022-09-25T04:50:21;101672.97;;;12.82;92.37
11440;BME280;5776;51.814;4.510;2022-09-25T04:52:48;101667.78;;;12.80;92.30
11440;BME280;5776;51.814;4.510;2022-09-25T04:55:20;101670.78;;;12.79;92.79
11440;BME280;5776;51.814;4.510;2022-09-25T04:57:52;101674.34;;;12.79;92.24
11440;BME280;5776;51.814;4.510;2022-09-25T05:00:18;101669.16;;;12.78;92.07
11440;BME280;5776;51.814;4.510;2022-09-25T05:02:45;101665.63;;;12.77;92.12
11440;BME280;5776;51.814;4.510;2022-09-25T05:05:12;101680.63;;;12.74;92.08
11440;BME280;5776;51.814;4.510;2022-09-25T05:07:39;101678.19;;;12.73;91.68
11440;BME280;5776;51.814;4.510;2022-09-25T05:10:05;101683.91;;;12.71;92.13
11440;BME280;5776;51.814;4.510;2022-09-25T05:12:33;101682.28;;;12.70;91.67
11440;BME280;5776;51.814;4.510;2022-09-25T05:14:59;101683.38;;;12.69;91.83
11440;BME280;5776;51.814;4.510;2022-09-25T05:17:24;101683.94;;;12.66;91.96
11440;BME280;5776;51.814;4.510;2022-09-25T05:19:50;101682.31;;;12.65;91.88
11440;BME280;5776;51.814;4.510;2022-09-25T05:22:17;101683.94;;;12.66;91.91
11440;BME280;5776;51.814;4.510;2022-09-25T05:24:43;101677.44;;;12.62;91.63
11440;BME280;5776;51.814;4.510;2022-09-25T05:27:08;101671.44;;;12.60;91.10
11440;BME280;5776;51.814;4.510;2022-09-25T05:29:34;101670.09;;;12.58;91.50
11440;BME280;5776;51.814;4.510;2022-09-25T05:32:00;101678.84;;;12.54;91.13
11440;BME280;5776;51.814;4.510;2022-09-25T05:34:26;101676.69;;;12.51;91.09
11440;BME280;5776;51.814;4.510;2022-09-25T05:36:52;101678.06;;;12.49;91.30
11440;BME280;5776;51.814;4.510;2022-09-25T05:39:18;101678.31;;;12.47;91.26
11440;BME280;5776;51.814;4.510;2022-09-25T05:41:44;101680.78;;;12.49;91.06
11440;BME280;5776;51.814;4.510;2022-09-25T05:44:10;101676.13;;;12.49;91.68
11440;BME280;5776;51.814;4.510;2022-09-25T05:46:36;101682.97;;;12.47;90.92
11440;BME280;5776;51.814;4.510;2022-09-25T05:49:03;101670.16;;;12.47;91.59
11440;BME280;5776;51.814;4.510;2022-09-25T05:51:29;101673.97;;;12.51;91.15
11440;BME280;5776;51.814;4.510;2022-09-25T05:53:56;101664.94;;;12.51;91.06
11440;BME280;5776;51.814;4.510;2022-09-25T05:56:22;101663.84;;;12.57;91.25
11440;BME280;5776;51.814;4.510;2022-09-25T05:58:50;101667.53;;;12.71;91.24
11440;BME280;5776;51.814;4.510;2022-09-25T06:01:17;101674.88;;;12.76;91.23
11440;BME280;5776;51.814;4.510;2022-09-25T06:03:43;101672.41;;;12.80;90.84
11440;BME280;5776;51.814;4.510;2022-09-25T06:06:10;101670.75;;;12.84;90.29
11440;BME280;5776;51.814;4.510;2022-09-25T06:08:36;101675.13;;;12.85;90.28
11440;BME280;5776;51.814;4.510;2022-09-25T06:11:03;101661.19;;;12.86;90.08
11440;BME280;5776;51.814;4.510;2022-09-25T06:13:30;101669.09;;;12.88;90.34
11440;BME280;5776;51.814;4.510;2022-09-25T06:16:00;101678.88;;;12.89;90.60
11440;BME280;5776;51.814;4.510;2022-09-25T06:18:26;101681.59;;;12.89;90.60
11440;BME280;5776;51.814;4.510;2022-09-25T06:21:01;101687.06;;;12.89;90.44
11440;BME280;5776;51.814;4.510;2022-09-25T06:23:27;101696.09;;;12.89;90.45
11440;BME280;5776;51.814;4.510;2022-09-25T06:25:54;101691.44;;;12.90;90.25
11440;BME280;5776;51.814;4.510;2022-09-25T06:28:20;101692.25;;;12.90;90.41
11440;BME280;5776;51.814;4.510;2022-09-25T06:30:45;101700.16;;;12.92;90.17
11440;BME280;5776;51.814;4.510;2022-09-25T06:33:12;101694.97;;;12.90;90.48
11440;BME280;5776;51.814;4.510;2022-09-25T06:35:43;101695.78;;;12.91;90.13
11440;BME280;5776;51.814;4.510;2022-09-25T06:38:10;101702.03;;;12.91;90.09
11440;BME280;5776;51.814;4.510;2022-09-25T06:40:37;101709.94;;;12.93;89.97
11440;BME280;5776;51.814;4.510;2022-09-25T06:43:08;101697.41;;;12.97;90.88
11440;BME280;5776;51.814;4.510;2022-09-25T06:45:34;101694.63;;;13.02;90.76
11440;BME280;5776;51.814;4.510;2022-09-25T06:48:04;101707.47;;;13.02;90.99
11440;BME280;5776;51.814;4.510;2022-09-25T06:50:42;101702.28;;;13.00;90.43
11440;BME280;5776;51.814;4.510;2022-09-25T06:53:10;101709.66;;;13.00;90.76
11440;BME280;5776;51.814;4.510;2022-09-25T06:55:36;101707.72;;;13.00;90.43
11440;BME280;5776;51.814;4.510;2022-09-25T06:58:04;101710.69;;;13.04;90.42
11440;BME280;5776;51.814;4.510;2022-09-25T07:00:31;101718.59;;;13.05;90.63
11440;BME280;5776;51.814;4.510;2022-09-25T07:02:58;101713.94;;;13.06;90.66
11440;BME280;5776;51.814;4.510;2022-09-25T07:05:44;101714.25;;;13.04;91.12
11440;BME280;5776;51.814;4.510;2022-09-25T07:08:17;101712.59;;;13.03;90.75
11440;BME280;5776;51.814;4.510;2022-09-25T07:10:53;101708.81;;;13.04;90.18
11440;BME280;5776;51.814;4.510;2022-09-25T07:13:23;101701.69;;;13.03;90.88
11440;BME280;5776;51.814;4.510;2022-09-25T07:15:54;101704.44;;;13.03;90.30
11440;BME280;5776;51.814;4.510;2022-09-25T07:18:21;101698.16;;;13.03;91.00
11440;BME280;5776;51.814;4.510;2022-09-25T07:20:48;101701.69;;;13.03;90.84
11440;BME280;5776;51.814;4.510;2022-09-25T07:23:17;101698.69;;;13.05;90.96
11440;BME280;5776;51.814;4.510;2022-09-25T07:25:44;101697.91;;;13.04;91.01
11440;BME280;5776;51.814;4.510;2022-09-25T07:28:10;101704.97;;;13.05;90.44
11440;BME280;5776;51.814;4.510;2022-09-25T07:30:42;101695.66;;;13.06;90.73
11440;BME280;5776;51.814;4.510;2022-09-25T07:33:08;101690.22;;;13.06;90.47
11440;BME280;5776;51.814;4.510;2022-09-25T07:35:36;101686.41;;;13.07;90.67
11440;BME280;5776;51.814;4.510;2022-09-25T07:38:02;101678.22;;;13.07;90.95
11440;BME280;5776;51.814;4.510;2022-09-25T07:40:29;101682.56;;;13.08;90.48
11440;BME280;5776;51.814;4.510;2022-09-25T07:42:58;101685.28;;;13.08;91.02
11440;BME280;5776;51.814;4.510;2022-09-25T07:45:27;101681.50;;;13.09;90.85
11440;BME280;5776;51.814;4.510;2022-09-25T07:47:57;101691.28;;;13.10;90.67
11440;BME280;5776;51.814;4.510;2022-09-25T07:50:26;101695.94;;;13.10;90.75
11440;BME280;5776;51.814;4.510;2022-09-25T07:52:52;101701.63;;;13.13;90.48
11440;BME280;5776;51.814;4.510;2022-09-25T07:55:19;101703.53;;;13.13;90.93
11440;BME280;5776;51.814;4.510;2022-09-25T07:57:45;101706.28;;;13.13;90.78
11440;BME280;5776;51.814;4.510;2022-09-25T08:00:12;101696.97;;;13.14;90.87
11440;BME280;5776;51.814;4.510;2022-09-25T08:02:38;101703.28;;;13.14;91.42
11440;BME280;5776;51.814;4.510;2022-09-25T08:05:04;101706.81;;;13.15;90.96
11440;BME280;5776;51.814;4.510;2022-09-25T08:07:30;101704.88;;;13.15;90.89
11440;BME280;5776;51.814;4.510;2022-09-25T08:09:56;101712.78;;;13.17;90.94
11440;BME280;5776;51.814;4.510;2022-09-25T08:12:22;101706.50;;;13.16;91.19
11440;BME280;5776;51.814;4.510;2022-09-25T08:14:51;101708.16;;;13.17;91.16
11440;BME280;5776;51.814;4.510;2022-09-25T08:17:17;101702.38;;;13.19;91.03
11440;BME280;5776;51.814;4.510;2022-09-25T08:19:44;101709.50;;;13.20;90.81
11440;BME280;5776;51.814;4.510;2022-09-25T08:22:11;101714.66;;;13.22;91.06
11440;BME280;5776;51.814;4.510;2022-09-25T08:24:37;101710.84;;;13.23;91.14
11440;BME280;5776;51.814;4.510;2022-09-25T08:27:03;101710.84;;;13.23;90.74
11440;BME280;5776;51.814;4.510;2022-09-25T08:29:30;101710.84;;;13.23;90.71
11440;BME280;5776;51.814;4.510;2022-09-25T08:31:56;101716.81;;;13.25;91.18
11440;BME280;5776;51.814;4.510;2022-09-25T08:34:22;101718.44;;;13.26;90.81
11440;BME280;5776;51.814;4.510;2022-09-25T08:36:48;101718.44;;;13.26;91.54
11440;BME280;5776;51.814;4.510;2022-09-25T08:39:16;101714.66;;;13.27;91.46
11440;BME280;5776;51.814;4.510;2022-09-25T08:41:54;101710.03;;;13.27;91.15
11440;BME280;5776;51.814;4.510;2022-09-25T08:44:38;101718.75;;;13.29;91.48
11440;BME280;5776;51.814;4.510;2022-09-25T08:47:20;101707.00;;;13.29;90.63
11440;BME280;5776;51.814;4.510;2022-09-25T08:50:14;101707.81;;;13.29;91.26
11440;BME280;5776;51.814;4.510;2022-09-25T08:52:43;101706.72;;;13.30;91.13
11440;BME280;5776;51.814;4.510;2022-09-25T08:55:29;101712.72;;;13.32;91.49
11440;BME280;5776;51.814;4.510;2022-09-25T08:58:21;101709.69;;;13.34;90.79
11440;BME280;5776;51.814;4.510;2022-09-25T09:00:51;101705.88;;;13.35;91.44
11440;BME280;5776;51.814;4.510;2022-09-25T09:03:17;101702.03;;;13.36;91.63
11440;BME280;5776;51.814;4.510;2022-09-25T09:05:45;101703.38;;;13.38;91.60
11440;BME280;5776;51.814;4.510;2022-09-25T09:08:16;101708.25;;;13.42;91.33
11440;BME280;5776;51.814;4.510;2022-09-25T09:10:48;101705.47;;;13.47;91.77
11440;BME280;5776;51.814;4.510;2022-09-25T09:18:53;101700.44;;;13.59;91.34
11440;BME280;5776;51.814;4.510;2022-09-25T09:21:35;101702.16;;;13.55;91.53
11440;BME280;5776;51.814;4.510;2022-09-25T09:32:34;101695.31;;;13.57;91.76
11440;BME280;5776;51.814;4.510;2022-09-25T09:38:18;101688.16;;;13.61;91.89
11440;BME280;5776;51.814;4.510;2022-09-25T09:54:35;101703.28;;;13.78;90.75
11440;BME280;5776;51.814;4.510;2022-09-25T09:57:20;101695.09;;;13.78;90.00
11440;BME280;5776;51.814;4.510;2022-09-25T09:59:57;101693.16;;;13.78;89.85
11440;BME280;5776;51.814;4.510;2022-09-25T10:02:50;101695.03;;;13.83;90.20
11440;BME280;5776;51.814;4.510;2022-09-25T10:05:48;101689.59;;;13.83;90.13
11440;BME280;5776;51.814;4.510;2022-09-25T10:08:15;101688.19;;;13.86;90.71
11440;BME280;5776;51.814;4.510;2022-09-25T10:10:48;101682.72;;;13.86;89.96
11440;BME280;5776;51.814;4.510;2022-09-25T10:13:18;101695.00;;;13.88;90.08
11440;BME280;5776;51.814;4.510;2022-09-25T10:15:49;101683.78;;;13.90;90.16
11440;BME280;5776;51.814;4.510;2022-09-25T10:18:19;101686.53;;;13.90;90.41
11440;BME280;5776;51.814;4.510;2022-09-25T10:20:56;101688.41;;;13.89;89.97
11440;BME280;5776;51.814;4.510;2022-09-25T10:23:34;101689.53;;;13.88;90.71
11440;BME280;5776;51.814;4.510;2022-09-25T10:26:00;101693.38;;;13.87;90.12
11440;BME280;5776;51.814;4.510;2022-09-25T10:28:27;101687.38;;;13.85;89.99
11440;BME280;5776;51.814;4.510;2022-09-25T10:30:54;101680.28;;;13.84;91.11
11440;BME280;5776;51.814;4.510;2022-09-25T10:33:23;101683.31;;;13.82;91.35
11440;BME280;5776;51.814;4.510;2022-09-25T10:35:50;101685.25;;;13.82;91.67
11440;BME280;5776;51.814;4.510;2022-09-25T10:43:25;101681.16;;;14.03;90.32
11440;BME280;5776;51.814;4.510;2022-09-25T10:46:05;101685.97;;;14.12;90.27
11440;BME280;5776;51.814;4.510;2022-09-25T10:48:36;101672.84;;;14.14;88.78
11440;BME280;5776;51.814;4.510;2022-09-25T10:51:22;101669.25;;;14.18;88.34
11440;BME280;5776;51.814;4.510;2022-09-25T10:53:50;101674.13;;;14.21;88.77
11440;BME280;5776;51.814;4.510;2022-09-25T10:56:23;101667.50;;;14.27;88.23
11440;BME280;5776;51.814;4.510;2022-09-25T10:58:58;101670.75;;;14.30;88.00
11440;BME280;5776;51.814;4.510;2022-09-25T11:01:33;101662.50;;;14.35;88.16
11440;BME280;5776;51.814;4.510;2022-09-25T11:04:02;101662.50;;;14.35;88.47
11440;BME280;5776;51.814;4.510;2022-09-25T11:06:30;101658.06;;;14.39;88.10
11440;BME280;5776;51.814;4.510;2022-09-25T11:09:10;101657.25;;;14.38;88.19
11440;BME280;5776;51.814;4.510;2022-09-25T11:11:38;101649.84;;;14.39;88.09
11440;BME280;5776;51.814;4.510;2022-09-25T11:14:29;101649.84;;;14.39;87.59
11440;BME280;5776;51.814;4.510;2022-09-25T11:16:59;101651.19;;;14.41;85.82
11440;BME280;5776;51.814;4.510;2022-09-25T11:22:18;101653.28;;;14.50;87.09
11440;BME280;5776;51.814;4.510;2022-09-25T11:25:12;101648.31;;;14.52;87.50
11440;BME280;5776;51.814;4.510;2022-09-25T11:27:57;101644.19;;;14.54;87.04
11440;BME280;5776;51.814;4.510;2022-09-25T11:30:31;101642.78;;;14.57;86.67
11440;BME280;5776;51.814;4.510;2022-09-25T11:33:10;101644.38;;;14.63;87.76
11440;BME280;5776;51.814;4.510;2022-09-25T11:38:40;101634.03;;;14.60;87.55
11440;BME280;5776;51.814;4.510;2022-09-25T11:47:23;101626.84;;;14.64;87.24
11440;BME280;5776;51.814;4.510;2022-09-25T11:49:51;101626.84;;;14.64;87.50
11440;BME280;5776;51.814;4.510;2022-09-25T11:52:46;101625.50;;;14.61;88.11
11440;BME280;5776;51.814;4.510;2022-09-25T12:01:28;101624.47;;;14.76;87.24
11440;BME280;5776;51.814;4.510;2022-09-25T12:18:05;101603.81;;;15.03;85.81
11440;BME280;5776;51.814;4.510;2022-09-25T12:20:52;101603.41;;;15.09;85.02
11440;BME280;5776;51.814;4.510;2022-09-25T12:23:33;101593.59;;;15.08;84.63
11440;BME280;5776;51.814;4.510;2022-09-25T12:26:23;101594.41;;;15.09;85.19
11440;BME280;5776;51.814;4.510;2022-09-25T12:36:41;101587.50;;;15.11;85.34
11440;BME280;5776;51.814;4.510;2022-09-25T12:44:40;101582.84;;;15.12;85.26
11440;BME280;5776;51.814;4.510;2022-09-25T12:47:32;101579.31;;;15.11;84.02
11440;BME280;5776;51.814;4.510;2022-09-25T12:50:10;101575.16;;;15.14;84.98
11440;BME280;5776;51.814;4.510;2022-09-25T12:52:43;101568.88;;;15.13;83.49
11440;BME280;5776;51.814;4.510;2022-09-25T12:55:20;101573.56;;;15.13;84.14
11440;BME280;5776;51.814;4.510;2022-09-25T12:58:04;101568.59;;;15.15;84.36
11440;BME280;5776;51.814;4.510;2022-09-25T13:00:35;101570.50;;;15.15;84.53
11440;BME280;5776;51.814;4.510;2022-09-25T13:04:15;101569.78;;;15.09;86.07
11440;BME280;5776;51.814;4.510;2022-09-25T13:08:56;101566.84;;;15.05;85.52
11440;BME280;5776;51.814;4.510;2022-09-25T13:11:45;101567.94;;;15.04;86.89
11440;BME280;5776;51.814;4.510;2022-09-25T13:14:29;101564.41;;;15.04;86.40
11440;BME280;5776;51.814;4.510;2022-09-25T13:16:56;101563.59;;;15.03;87.22
11440;BME280;5776;51.814;4.510;2022-09-25T13:19:27;101561.16;;;15.02;86.96
11440;BME280;5776;51.814;4.510;2022-09-25T13:22:02;101556.50;;;15.02;86.27
11440;BME280;5776;51.814;4.510;2022-09-25T13:24:35;101554.88;;;15.01;87.04
11440;BME280;5776;51.814;4.510;2022-09-25T13:27:04;101547.47;;;15.02;87.26
11440;BME280;5776;51.814;4.510;2022-09-25T13:29:34;101553.78;;;15.02;86.89
11440;BME280;5776;51.814;4.510;2022-09-25T13:32:19;101555.19;;;15.00;86.76
11440;BME280;5776;51.814;4.510;2022-09-25T13:34:53;101559.53;;;15.01;87.07
11440;BME280;5776;51.814;4.510;2022-09-25T13:37:30;101553.78;;;15.02;87.81
11440;BME280;5776;51.814;4.510;2022-09-25T13:39:58;101547.47;;;15.02;87.32
11440;BME280;5776;51.814;4.510;2022-09-25T13:42:45;101555.25;;;14.95;87.42
11440;BME280;5776;51.814;4.510;2022-09-25T13:48:01;101541.28;;;14.96;86.55
11440;BME280;5776;51.814;4.510;2022-09-25T13:50:31;101537.66;;;15.01;84.96
11440;BME280;5776;51.814;4.510;2022-09-25T13:58:30;101540.19;;;15.11;84.18
11440;BME280;5776;51.814;4.510;2022-09-25T14:00:59;101530.38;;;15.10;82.61
11440;BME280;5776;51.814;4.510;2022-09-25T14:03:44;101527.66;;;15.10;83.99
11440;BME280;5776;51.814;4.510;2022-09-25T14:06:18;101525.50;;;15.07;83.30
11440;BME280;5776;51.814;4.510;2022-09-25T14:08:46;101528.22;;;15.07;82.96
11440;BME280;5776;51.814;4.510;2022-09-25T14:11:18;101522.19;;;15.10;84.41
11440;BME280;5776;51.814;4.510;2022-09-25T14:13:49;101521.06;;;15.11;84.04
11440;BME280;5776;51.814;4.510;2022-09-25T14:16:24;101522.88;;;15.16;83.39
11440;BME280;5776;51.814;4.510;2022-09-25T14:18:52;101518.72;;;15.18;84.14
11440;BME280;5776;51.814;4.510;2022-09-25T14:21:21;101514.34;;;15.17;84.54
11440;BME280;5776;51.814;4.510;2022-09-25T14:23:50;101506.16;;;15.17;84.44
11440;BME280;5776;51.814;4.510;2022-09-25T14:26:19;101512.13;;;15.19;84.01
11440;BME280;5776;51.814;4.510;2022-09-25T14:28:47;101506.88;;;15.23;84.03
11440;BME280;5776;51.814;4.510;2022-09-25T14:33:52;101505.47;;;15.25;84.09
11440;BME280;5776;51.814;4.510;2022-09-25T14:39:01;101508.41;;;15.29;83.45
11440;BME280;5776;51.814;4.510;2022-09-25T14:46:39;101503.03;;;15.24;84.30
11440;BME280;5776;51.814;4.510;2022-09-25T14:49:20;101502.84;;;15.20;84.04
11440;BME280;5776;51.814;4.510;2022-09-25T14:51:49;101502.00;;;15.20;83.79
11440;BME280;5776;51.814;4.510;2022-09-25T14:54:20;101503.13;;;15.19;84.20
11440;BME280;5776;51.814;4.510;2022-09-25T14:56:50;101497.03;;;15.22;83.50
11440;BME280;5776;51.814;4.510;2022-09-25T14:59:36;101499.78;;;15.22;84.03
11440;BME280;5776;51.814;4.510;2022-09-25T15:02:18;101492.88;;;15.24;83.26
11440;BME280;5776;51.814;4.510;2022-09-25T15:04:47;101496.22;;;15.21;83.70
11440;BME280;5776;51.814;4.510;2022-09-25T15:07:15;101493.31;;;15.18;84.22
11440;BME280;5776;51.814;4.510;2022-09-25T15:09:44;101493.88;;;15.15;84.11
11440;BME280;5776;51.814;4.510;2022-09-25T15:12:27;101495.31;;;15.12;84.88
11440;BME280;5776;51.814;4.510;2022-09-25T15:17:23;101492.09;;;15.10;84.25
11440;BME280;5776;51.814;4.510;2022-09-25T15:19:50;101483.88;;;15.10;84.65
11440;BME280;5776;51.814;4.510;2022-09-25T15:22:20;101477.56;;;15.09;84.27
11440;BME280;5776;51.814;4.510;2022-09-25T15:24:51;101472.94;;;15.10;84.53
11440;BME280;5776;51.814;4.510;2022-09-25T15:27:19;101480.63;;;15.08;85.74
11440;BME280;5776;51.814;4.510;2022-09-25T15:29:47;101479.00;;;15.07;86.51
11440;BME280;5776;51.814;4.510;2022-09-25T15:32:20;101483.38;;;15.08;86.04
11440;BME280;5776;51.814;4.510;2022-09-25T15:34:46;101475.34;;;15.11;86.12
11440;BME280;5776;51.814;4.510;2022-09-25T15:39:46;101469.06;;;15.11;87.17
11440;BME280;5776;51.814;4.510;2022-09-25T15:42:15;101468.56;;;15.09;86.82
11440;BME280;5776;51.814;4.510;2022-09-25T15:44:41;101477.09;;;15.07;88.16
11440;BME280;5776;51.814;4.510;2022-09-25T15:50:03;101475.53;;;15.01;84.15